createdAt,value
2024-03-09T00:00:00.000Z,11.68
2024-03-09T00:15:00.000Z,11.66
2024-03-09T00:30:00.000Z,11.12
2024-03-09T00:45:00.000Z,11.06
2024-03-09T01:00:00.000Z,10.94
2024-03-09T01:15:00.000Z,11.2
2024-03-09T01:30:00.000Z,10.86
2024-03-09T01:45:00.000Z,12.42
2024-03-09T02:00:00.000Z,12.58
2024-03-09T02:15:00.000Z,12.87
2024-03-09T02:30:00.000Z,13.45
2024-03-09T02:45:00.000Z,14.14
2024-03-09T03:00:00.000Z,13.91
2024-03-09T03:15:00.000Z,14.41
2024-03-09T03:30:00.000Z,16.36
2024-03-09T03:45:00.000Z,18.41
2024-03-09T04:00:00.000Z,16.42
2024-03-09T04:15:00.000Z,16.09
2024-03-09T04:30:00.000Z,16.51
2024-03-09T04:45:00.000Z,16.61
2024-03-09T05:00:00.000Z,16.78
2024-03-09T05:15:00.000Z,17.66
2024-03-09T05:30:00.000Z,17.75
2024-03-09T05:45:00.000Z,18.4
2024-03-09T06:00:00.000Z,19.68
2024-03-09T06:15:00.000Z,17.19
2024-03-09T06:30:00.000Z,16.53
2024-03-09T06:45:00.000Z,16.56
2024-03-09T07:00:00.000Z,15.48
2024-03-09T07:15:00.000Z,14.19
2024-03-09T07:30:00.000Z,13.88
2024-03-09T07:45:00.000Z,12.82
2024-03-09T08:00:00.000Z,11.82
2024-03-09T08:15:00.000Z,11.62
2024-03-09T08:30:00.000Z,11.52
2024-03-09T08:45:00.000Z,10.32
2024-03-09T09:00:00.000Z,10.12
2024-03-09T09:15:00.000Z,10.36
2024-03-09T09:30:00.000Z,9.88
2024-03-09T09:45:00.000Z,10.47
2024-03-09T10:00:00.000Z,10
2024-03-09T10:15:00.000Z,9.72
2024-03-09T10:30:00.000Z,10.21
2024-03-09T10:45:00.000Z,8.39
2024-03-09T11:00:00.000Z,6.61
2024-03-09T11:15:00.000Z,4.64
2024-03-09T11:30:00.000Z,4.52
2024-03-09T11:45:00.000Z,5.2
2024-03-09T12:00:00.000Z,6.34
2024-03-09T12:15:00.000Z,5.84
2024-03-09T12:30:00.000Z,5.27
2024-03-09T12:45:00.000Z,6.99
2024-03-09T13:00:00.000Z,5.44
2024-03-09T13:15:00.000Z,5.41
2024-03-09T13:30:00.000Z,6.14
2024-03-09T13:45:00.000Z,6.99
2024-03-09T14:00:00.000Z,7.4
2024-03-09T14:15:00.000Z,7.18
2024-03-09T14:30:00.000Z,7.52
2024-03-09T14:45:00.000Z,7.87
2024-03-09T15:00:00.000Z,6.28
2024-03-09T15:15:00.000Z,7.48
2024-03-09T15:30:00.000Z,7.65
2024-03-09T15:45:00.000Z,6.38
2024-03-09T16:00:00.000Z,5.49
2024-03-09T16:15:00.000Z,4.08
2024-03-09T16:30:00.000Z,3.12
2024-03-09T16:45:00.000Z,3.06
2024-03-09T17:00:00.000Z,3.82
2024-03-09T17:15:00.000Z,3.78
2024-03-09T17:30:00.000Z,7.68
2024-03-09T17:45:00.000Z,2.38
2024-03-09T18:00:00.000Z,5.31
2024-03-09T18:15:00.000Z,1.11
2024-03-09T18:30:00.000Z,1.09
2024-03-09T18:45:00.000Z,1.19
2024-03-09T19:00:00.000Z,1.12
2024-03-09T19:15:00.000Z,1.07
2024-03-09T19:30:00.000Z,1.05
2024-03-09T19:45:00.000Z,1.02
2024-03-09T20:00:00.000Z,1.07
2024-03-09T20:15:00.000Z,1.06
2024-03-09T20:30:00.000Z,1.04
2024-03-09T20:45:00.000Z,1.05
2024-03-09T21:00:00.000Z,1.01
2024-03-09T21:15:00.000Z,1.06
2024-03-09T21:30:00.000Z,1.06
2024-03-09T21:45:00.000Z,1.02
2024-03-09T22:00:00.000Z,1.01
2024-03-09T22:15:00.000Z,1.05
2024-03-09T22:30:00.000Z,1.04
2024-03-09T22:45:00.000Z,1.07
2024-03-09T23:00:00.000Z,1.13
2024-03-09T23:15:00.000Z,1.06
2024-03-09T23:30:00.000Z,1.12
2024-03-09T23:45:00.000Z,1.14
